Time;durP1;ratioP1;P1;durP2;ratioP2;P2;SDS_P1;SDS_P2;PMS_P1;PMS_P2;Temp;Humidity;BMP_temperature;BMP_pressure;BME280_temperature;BME280_humidity;BME280_pressure;Samples;Min_cycle;Max_cycle;Signal;HPM_P1;HPM_P2
2023/10/23 00:01:12;;;;;;;9.57;3.00;;;8.80;79.40;;;;;;5055148;28;20044;-70
2023/10/23 00:03:38;;;;;;;5.85;3.00;;;8.90;79.40;;;;;;5054899;28;20087;-74
2023/10/23 00:06:03;;;;;;;7.05;2.80;;;8.90;79.40;;;;;;5054867;28;20049;-71
2023/10/23 00:08:29;;;;;;;6.78;3.17;;;8.90;79.40;;;;;;5054524;28;20072;-70
2023/10/23 00:10:54;;;;;;;8.68;3.47;;;8.90;79.20;;;;;;5054746;28;20032;-71
2023/10/23 00:13:20;;;;;;;6.10;3.30;;;8.90;79.20;;;;;;5054911;28;20036;-73
2023/10/23 00:15:45;;;;;;;9.02;3.08;;;8.80;79.20;;;;;;5054872;28;20033;-72
2023/10/23 00:18:11;;;;;;;4.75;2.80;;;8.90;79.10;;;;;;5055392;28;20032;-71
2023/10/23 00:20:36;;;;;;;6.43;2.97;;;8.80;79.10;;;;;;5055624;28;20100;-72
2023/10/23 00:23:02;;;;;;;5.57;3.08;;;8.80;79.20;;;;;;5056166;28;20072;-71
2023/10/23 00:25:27;;;;;;;6.30;3.20;;;8.80;79.10;;;;;;5054925;28;20437;-72
2023/10/23 00:27:53;;;;;;;5.40;3.38;;;8.80;79.20;;;;;;5055539;28;20067;-72
2023/10/23 00:30:18;;;;;;;6.80;3.10;;;8.70;79.50;;;;;;5054819;28;20100;-72
2023/10/23 00:32:44;;;;;;;6.22;2.85;;;8.60;79.80;;;;;;5054644;28;20110;-72
2023/10/23 00:35:09;;;;;;;8.30;3.20;;;8.50;80.20;;;;;;5054513;28;20122;-74
2023/10/23 00:37:35;;;;;;;6.85;3.22;;;8.50;80.40;;;;;;5054773;28;20102;-71
2023/10/23 00:40:01;;;;;;;7.22;3.00;;;8.50;80.80;;;;;;5054308;28;20440;-70
2023/10/23 00:42:26;;;;;;;5.53;2.30;;;8.50;81.10;;;;;;5054273;28;20055;-71
2023/10/23 00:44:52;;;;;;;6.28;2.90;;;8.40;81.10;;;;;;5054327;28;20118;-70
2023/10/23 00:47:18;;;;;;;6.00;2.67;;;8.50;81.10;;;;;;5053587;28;20017;-73
2023/10/23 00:49:44;;;;;;;4.88;3.05;;;8.50;81.00;;;;;;5054223;28;20060;-71
2023/10/23 00:52:10;;;;;;;9.57;3.25;;;8.40;80.90;;;;;;5054305;28;20029;-71
2023/10/23 00:54:37;;;;;;;9.25;2.85;;;8.30;81.30;;;;;;5054227;28;20303;-72
2023/10/23 00:57:03;;;;;;;5.25;2.42;;;8.40;81.50;;;;;;5054247;28;20051;-78
2023/10/23 00:59:29;;;;;;;4.85;2.80;;;8.40;81.40;;;;;;5054108;28;20032;-74
2023/10/23 01:01:56;;;;;;;10.13;2.90;;;8.40;81.20;;;;;;5052580;28;20031;-71
2023/10/23 01:04:22;;;;;;;6.30;2.20;;;8.30;81.40;;;;;;5052566;28;20448;-72
2023/10/23 01:06:50;;;;;;;4.85;2.47;;;8.30;81.60;;;;;;5053862;28;20111;-77
2023/10/23 01:09:16;;;;;;;6.78;2.80;;;8.20;81.90;;;;;;5053757;28;20024;-72
2023/10/23 01:11:41;;;;;;;4.22;2.47;;;8.20;82.00;;;;;;5053818;28;20029;-71
2023/10/23 01:14:07;;;;;;;6.63;2.50;;;8.20;82.40;;;;;;5053602;28;20021;-72
2023/10/23 01:16:32;;;;;;;4.78;2.35;;;8.20;82.40;;;;;;5053727;28;20029;-72
2023/10/23 01:18:58;;;;;;;8.20;2.92;;;8.20;82.30;;;;;;5053740;28;20033;-72
2023/10/23 01:21:23;;;;;;;8.07;3.15;;;8.10;82.20;;;;;;5053615;28;20037;-72
2023/10/23 01:23:51;;;;;;;7.10;2.88;;;8.10;82.40;;;;;;5053470;28;20036;-72
2023/10/23 01:26:17;;;;;;;7.22;2.65;;;8.10;82.50;;;;;;5053662;28;20048;-72
2023/10/23 01:28:43;;;;;;;7.13;2.42;;;8.10;82.70;;;;;;5052242;28;20440;-72
2023/10/23 01:31:09;;;;;;;4.82;2.28;;;8.10;82.80;;;;;;5052105;28;20459;-72
2023/10/23 01:33:35;;;;;;;4.80;1.73;;;8.10;82.90;;;;;;5052043;28;20073;-71
2023/10/23 01:36:01;;;;;;;4.97;2.08;;;8.10;82.90;;;;;;5052169;28;20021;-71
2023/10/23 01:38:26;;;;;;;7.93;2.10;;;8.20;82.90;;;;;;5053223;28;20549;-70
2023/10/23 01:40:52;;;;;;;5.90;1.80;;;8.20;82.90;;;;;;5052133;28;20029;-72
2023/10/23 01:43:18;;;;;;;5.95;1.98;;;8.10;83.10;;;;;;5053292;28;20029;-70
2023/10/23 01:45:43;;;;;;;3.50;1.77;;;8.10;83.40;;;;;;5053299;28;20021;-71
2023/10/23 01:48:09;;;;;;;6.75;2.25;;;8.10;83.50;;;;;;5053143;28;20021;-73
2023/10/23 01:50:36;;;;;;;5.05;1.95;;;8.10;83.50;;;;;;5053182;28;20074;-70
2023/10/23 01:53:02;;;;;;;6.82;1.98;;;8.10;83.40;;;;;;5051699;28;20392;-73
2023/10/23 01:55:27;;;;;;;5.85;1.80;;;8.10;83.50;;;;;;5053280;28;20028;-78
2023/10/23 01:57:55;;;;;;;6.93;1.92;;;8.10;83.40;;;;;;5053377;28;20032;-73
2023/10/23 02:00:21;;;;;;;3.17;1.50;;;8.10;83.60;;;;;;5053019;28;20100;-75
2023/10/23 02:02:46;;;;;;;3.72;1.88;;;8.10;83.50;;;;;;5053063;28;20112;-74
2023/10/23 02:05:12;;;;;;;4.07;1.63;;;8.10;83.30;;;;;;5052939;28;20024;-73
2023/10/23 02:07:37;;;;;;;3.13;1.40;;;8.10;83.40;;;;;;5053194;28;20060;-75
2023/10/23 02:10:03;;;;;;;5.03;2.22;;;8.20;83.50;;;;;;5051901;28;20036;-74
2023/10/23 02:12:29;;;;;;;2.88;1.67;;;8.20;83.60;;;;;;5053324;28;20477;-73
2023/10/23 02:14:55;;;;;;;4.88;1.70;;;8.20;83.50;;;;;;5053061;28;20021;-79
2023/10/23 02:17:20;;;;;;;4.40;1.98;;;8.20;83.70;;;;;;5053338;28;20100;-74
2023/10/23 02:19:47;;;;;;;3.85;1.35;;;8.30;83.60;;;;;;5053022;28;20415;-74
2023/10/23 02:22:13;;;;;;;4.35;1.55;;;8.30;83.40;;;;;;5053166;28;20123;-78
2023/10/23 02:24:38;;;;;;;6.32;1.63;;;8.30;83.60;;;;;;5053365;28;20110;-77
2023/10/23 02:27:04;;;;;;;2.22;1.30;;;8.20;83.50;;;;;;5053286;28;20023;-78
2023/10/23 02:29:29;;;;;;;3.90;1.80;;;8.30;83.40;;;;;;5053097;28;20032;-80
2023/10/23 02:31:55;;;;;;;3.42;1.40;;;8.30;83.10;;;;;;5051464;28;20017;-77
2023/10/23 02:34:21;;;;;;;5.18;1.95;;;8.30;83.00;;;;;;5052679;28;20045;-81
2023/10/23 02:36:46;;;;;;;3.00;1.75;;;8.30;83.10;;;;;;5053064;28;20033;-76
2023/10/23 02:39:12;;;;;;;6.13;1.60;;;8.30;82.90;;;;;;5053398;28;20032;-80
2023/10/23 02:41:38;;;;;;;3.45;1.65;;;8.30;82.80;;;;;;5053120;28;20378;-78
2023/10/23 02:44:04;;;;;;;4.45;1.65;;;8.30;82.50;;;;;;5053234;28;20033;-80
2023/10/23 02:46:34;;;;;;;3.67;1.83;;;8.30;82.50;;;;;;5052891;28;20056;-76
2023/10/23 02:49:00;;;;;;;3.85;1.65;;;8.30;82.40;;;;;;5053132;28;20124;-78
2023/10/23 02:51:26;;;;;;;5.78;1.88;;;8.20;82.50;;;;;;5052461;28;20108;-71
2023/10/23 02:53:51;;;;;;;5.18;1.73;;;8.20;82.70;;;;;;5052361;28;20445;-71
2023/10/23 02:56:17;;;;;;;3.78;1.60;;;8.10;83.00;;;;;;5052449;28;20025;-71
2023/10/23 02:58:42;;;;;;;3.17;1.40;;;8.10;83.00;;;;;;5052444;28;20032;-71
2023/10/23 03:01:20;;;;;;;5.28;1.77;;;8.00;83.10;;;;;;5052320;28;20044;-74
2023/10/23 03:03:49;;;;;;;4.97;2.08;;;8.10;83.30;;;;;;5052456;28;20033;-71
2023/10/23 03:06:15;;;;;;;4.22;2.13;;;8.00;83.10;;;;;;5052170;28;20064;-71
2023/10/23 03:08:40;;;;;;;4.32;2.40;;;8.10;83.20;;;;;;5051378;28;20033;-70
2023/10/23 03:11:06;;;;;;;7.95;3.70;;;8.10;83.00;;;;;;5054954;28;20017;-70
2023/10/23 03:13:32;;;;;;;11.52;6.35;;;8.20;82.80;;;;;;5056125;28;20442;-72
2023/10/23 03:15:58;;;;;;;9.40;5.90;;;8.20;82.30;;;;;;5054622;28;20425;-71
2023/10/23 03:18:23;;;;;;;7.45;3.42;;;8.20;82.10;;;;;;5055826;28;20067;-71
2023/10/23 03:20:49;;;;;;;4.45;2.67;;;8.20;81.80;;;;;;5054742;28;20075;-75
2023/10/23 03:23:15;;;;;;;3.47;2.42;;;8.20;82.00;;;;;;5055881;28;20458;-74
2023/10/23 03:25:42;;;;;;;4.53;2.08;;;8.20;81.80;;;;;;5055812;28;20017;-70
2023/10/23 03:28:08;;;;;;;4.07;1.70;;;8.30;81.80;;;;;;5055824;28;20025;-72
2023/10/23 03:30:33;;;;;;;3.80;1.73;;;8.30;81.70;;;;;;5055414;28;20023;-71
2023/10/23 03:32:59;;;;;;;2.33;1.50;;;8.20;81.60;;;;;;5055998;28;20021;-71
2023/10/23 03:35:25;;;;;;;2.60;1.40;;;8.20;81.50;;;;;;5054103;28;20486;-75
2023/10/23 03:37:50;;;;;;;1.40;1.30;;;8.10;81.30;;;;;;5054078;28;20043;-72
2023/10/23 03:40:16;;;;;;;4.45;1.63;;;8.10;81.00;;;;;;5055774;28;20028;-75
2023/10/23 03:42:41;;;;;;;2.30;1.30;;;8.00;81.20;;;;;;5055748;28;20021;-76
2023/10/23 03:45:07;;;;;;;2.17;1.20;;;7.90;81.50;;;;;;5055213;28;20037;-80
2023/10/23 03:47:32;;;;;;;3.22;1.20;;;7.90;81.60;;;;;;5055040;28;20039;-77
2023/10/23 03:49:58;;;;;;;1.40;0.95;;;7.90;81.60;;;;;;5054163;28;20021;-79
2023/10/23 03:52:24;;;;;;;3.08;1.23;;;7.90;81.40;;;;;;5055850;28;20032;-78
2023/10/23 03:54:49;;;;;;;3.67;1.13;;;7.90;81.30;;;;;;5054150;28;20026;-80
2023/10/23 03:57:14;;;;;;;4.03;1.23;;;7.90;81.10;;;;;;5054168;28;20024;-81
2023/10/23 03:59:44;;;;;;;2.42;1.40;;;7.90;81.10;;;;;;5053953;28;20492;-82
2023/10/23 04:02:09;;;;;;;3.88;1.55;;;7.90;81.30;;;;;;5054019;28;20045;-81
2023/10/23 04:04:35;;;;;;;3.40;1.40;;;7.80;81.60;;;;;;5055511;28;20025;-82
2023/10/23 04:07:01;;;;;;;6.88;1.80;;;7.80;82.10;;;;;;5055202;28;20056;-82
2023/10/23 04:09:30;;;;;;;3.80;1.60;;;7.70;82.20;;;;;;5055422;28;20025;-79
2023/10/23 04:11:56;;;;;;;2.63;1.63;;;7.60;82.00;;;;;;5055257;28;20424;-83
2023/10/23 04:14:21;;;;;;;3.33;1.58;;;7.60;81.90;;;;;;5055123;28;20025;-81
2023/10/23 04:16:47;;;;;;;3.22;1.50;;;7.70;82.00;;;;;;5055092;28;20044;-82
2023/10/23 04:19:13;;;;;;;1.95;1.33;;;7.60;81.80;;;;;;5054976;28;20021;-80
2023/10/23 04:21:41;;;;;;;2.95;1.30;;;7.70;81.80;;;;;;5052370;28;20028;-81
2023/10/23 04:24:09;;;;;;;5.20;1.70;;;7.60;81.50;;;;;;5054894;28;20033;-83
2023/10/23 04:26:35;;;;;;;2.72;1.30;;;7.60;81.40;;;;;;5055072;28;20040;-83
2023/10/23 04:29:01;;;;;;;2.45;1.20;;;7.60;81.00;;;;;;5053621;28;20025;-80
2023/10/23 04:31:26;;;;;;;3.38;1.50;;;7.60;81.10;;;;;;5054801;28;20419;-70
2023/10/23 04:33:52;;;;;;;4.60;1.50;;;7.50;81.60;;;;;;5054633;28;20045;-80
2023/10/23 04:36:17;;;;;;;2.90;1.60;;;7.50;81.80;;;;;;5056400;28;20501;-81
2023/10/23 04:38:43;;;;;;;2.58;1.40;;;7.50;82.00;;;;;;5055838;28;20108;-81
2023/10/23 04:41:08;;;;;;;4.97;1.80;;;7.50;82.20;;;;;;5059784;28;20063;-80
2023/10/23 04:43:35;;;;;;;2.60;1.70;;;7.60;82.20;;;;;;5058132;28;20532;-76
2023/10/23 04:46:01;;;;;;;4.75;1.80;;;7.60;82.10;;;;;;5058078;28;20128;-77
2023/10/23 04:48:27;;;;;;;4.93;2.10;;;7.60;82.10;;;;;;5053747;28;20059;-80
2023/10/23 04:50:57;;;;;;;3.83;2.03;;;7.50;82.60;;;;;;5053560;28;20029;-81
2023/10/23 04:53:23;;;;;;;2.60;1.60;;;7.50;82.90;;;;;;5054737;28;20075;-80
2023/10/23 04:55:48;;;;;;;3.60;1.45;;;7.50;82.80;;;;;;5054525;28;20029;-82
2023/10/23 04:58:14;;;;;;;2.22;1.20;;;7.50;82.60;;;;;;5054435;28;20108;-79
2023/10/23 05:00:40;;;;;;;3.05;1.25;;;7.50;82.70;;;;;;5054232;28;20326;-77
2023/10/23 05:03:06;;;;;;;5.20;1.92;;;7.60;82.60;;;;;;5054263;28;20037;-81
2023/10/23 05:05:32;;;;;;;2.53;1.33;;;7.60;81.90;;;;;;5054119;28;20466;-79
2023/10/23 05:07:58;;;;;;;3.95;1.80;;;7.60;81.70;;;;;;5053005;28;20040;-79
2023/10/23 05:10:24;;;;;;;4.22;2.20;;;7.60;82.40;;;;;;5052761;28;20158;-75
2023/10/23 05:12:53;;;;;;;8.80;2.95;;;7.60;82.70;;;;;;5054081;28;20059;-73
2023/10/23 05:15:19;;;;;;;6.15;2.75;;;7.50;83.00;;;;;;5056688;28;20035;-81
2023/10/23 05:17:45;;;;;;;9.07;4.63;;;7.50;83.30;;;;;;5053902;28;20505;-71
2023/10/23 05:20:11;;;;;;;9.00;5.68;;;7.40;84.40;;;;;;5052960;28;20032;-81
2023/10/23 05:22:36;;;;;;;8.43;3.88;;;7.40;83.80;;;;;;5054055;28;20029;-80
2023/10/23 05:25:02;;;;;;;5.95;3.28;;;7.40;84.10;;;;;;5054000;28;20060;-75
2023/10/23 05:27:28;;;;;;;4.68;2.83;;;7.40;84.20;;;;;;5054010;28;20466;-79
2023/10/23 05:29:54;;;;;;;7.50;4.25;;;7.40;84.30;;;;;;5053636;28;20096;-81
2023/10/23 05:32:19;;;;;;;7.28;3.83;;;7.40;83.10;;;;;;5053455;28;20027;-76
2023/10/23 05:34:45;;;;;;;7.65;4.03;;;7.20;80.80;;;;;;5053358;28;20057;-79
2023/10/23 05:37:11;;;;;;;8.65;3.92;;;7.00;83.20;;;;;;5053623;28;20036;-80
2023/10/23 05:39:36;;;;;;;6.95;3.30;;;6.90;84.00;;;;;;5053169;28;20035;-73
2023/10/23 05:42:03;;;;;;;6.07;3.53;;;6.90;85.00;;;;;;5053136;28;20112;-77
2023/10/23 05:44:28;;;;;;;6.43;3.60;;;6.90;84.90;;;;;;5051884;28;20029;-77
2023/10/23 05:46:54;;;;;;;6.38;3.53;;;7.00;84.80;;;;;;5053428;28;20036;-80
2023/10/23 05:49:19;;;;;;;8.65;4.18;;;7.10;84.50;;;;;;5051949;28;20033;-77
2023/10/23 05:51:45;;;;;;;8.13;5.00;;;7.20;84.40;;;;;;5052816;28;20110;-79
2023/10/23 05:54:10;;;;;;;6.60;4.88;;;7.20;84.00;;;;;;5053370;28;20070;-76
2023/10/23 05:56:36;;;;;;;7.28;5.00;;;7.20;83.80;;;;;;5053106;28;20039;-77
2023/10/23 05:59:03;;;;;;;7.38;4.15;;;7.30;83.00;;;;;;5052606;28;20067;-78
2023/10/23 06:01:29;;;;;;;9.13;4.28;;;7.30;83.20;;;;;;5051679;28;20086;-79
2023/10/23 06:03:55;;;;;;;6.55;3.53;;;7.30;83.60;;;;;;5052949;28;20051;-80
2023/10/23 06:06:21;;;;;;;8.85;3.92;;;7.40;83.20;;;;;;5052963;28;20013;-80
2023/10/23 06:08:47;;;;;;;6.90;3.65;;;7.50;82.80;;;;;;5051819;28;20025;-83
2023/10/23 06:11:13;;;;;;;28.70;5.88;;;7.60;82.10;;;;;;5051849;28;20021;-77
2023/10/23 06:13:39;;;;;;;8.05;4.40;;;8.30;94.40;;;;;;5052806;28;20424;-75
2023/10/23 06:16:05;;;;;;;6.80;3.30;;;8.70;96.30;;;;;;5051401;28;20036;-74
2023/10/23 06:18:35;;;;;;;4.07;3.22;;;8.70;94.50;;;;;;5051213;28;20025;-74
2023/10/23 06:21:05;;;;;;;6.97;3.70;;;8.60;90.30;;;;;;5051117;28;20068;-73
2023/10/23 06:23:39;;;;;;;11.65;6.13;;;8.80;83.90;;;;;;5052444;28;20067;-73
2023/10/23 06:26:06;;;;;;;22.95;12.60;;;9.40;79.90;;;;;;5052785;28;20432;-74
2023/10/23 06:28:33;;;;;;;18.30;10.57;;;9.80;77.10;;;;;;5051460;28;20029;-74
2023/10/23 06:31:09;;;;;;;11.70;7.40;;;10.00;74.90;;;;;;5053200;28;20104;-74
2023/10/23 06:33:36;;;;;;;13.43;6.13;;;9.80;74.50;;;;;;5056595;28;20049;-72
2023/10/23 06:36:03;;;;;;;10.52;5.75;;;9.80;75.00;;;;;;5052814;28;20022;-73
2023/10/23 06:38:29;;;;;;;9.63;5.75;;;9.80;74.10;;;;;;5052554;28;20029;-73
2023/10/23 06:40:55;;;;;;;11.32;4.88;;;9.90;73.20;;;;;;5052700;28;20495;-74
2023/10/23 06:43:20;;;;;;;7.13;5.13;;;10.00;72.90;;;;;;5052527;28;20086;-72
2023/10/23 06:45:46;;;;;;;5.70;5.05;;;10.00;72.60;;;;;;5055064;28;20021;-73
2023/10/23 06:48:14;;;;;;;10.95;7.28;;;10.00;72.40;;;;;;5055514;28;20025;-72
2023/10/23 06:50:47;;;;;;;13.95;6.88;;;10.00;72.40;;;;;;5055686;28;20025;-75
2023/10/23 06:53:13;;;;;;;7.63;5.65;;;10.10;72.30;;;;;;5056488;28;20056;-72
2023/10/23 06:55:49;;;;;;;10.38;5.57;;;10.10;71.10;;;;;;5056360;28;20100;-71
2023/10/23 06:58:15;;;;;;;10.88;5.55;;;10.20;71.70;;;;;;5056387;28;20029;-75
2023/10/23 07:00:41;;;;;;;8.52;4.60;;;10.50;72.30;;;;;;5056612;28;20070;-73
2023/10/23 07:03:07;;;;;;;7.93;4.32;;;10.70;70.40;;;;;;5056324;28;20033;-75
2023/10/23 07:05:32;;;;;;;7.40;3.88;;;10.60;69.70;;;;;;5056294;28;20100;-73
2023/10/23 07:07:58;;;;;;;8.20;3.45;;;10.70;69.90;;;;;;5056151;28;20414;-74
2023/10/23 07:10:24;;;;;;;12.25;5.82;;;10.50;68.40;;;;;;5056000;28;20470;-73
2023/10/23 07:12:49;;;;;;;9.10;6.00;;;10.40;67.90;;;;;;5056366;28;20408;-71
2023/10/23 07:15:15;;;;;;;11.15;5.18;;;10.20;68.40;;;;;;5056092;28;20025;-72
2023/10/23 07:17:40;;;;;;;7.70;4.20;;;9.80;68.70;;;;;;5054876;28;20021;-78
2023/10/23 07:20:06;;;;;;;9.93;4.25;;;9.60;69.70;;;;;;5056126;28;20465;-75
2023/10/23 07:22:35;;;;;;;10.40;3.78;;;9.40;70.30;;;;;;5055833;28;20029;-72
2023/10/23 07:25:00;;;;;;;8.68;4.00;;;9.20;71.40;;;;;;5055837;28;20029;-71
2023/10/23 07:27:26;;;;;;;6.70;3.75;;;9.00;72.90;;;;;;5055801;28;20032;-76
2023/10/23 07:29:52;;;;;;;10.45;4.40;;;8.90;73.40;;;;;;5055700;28;20405;-78
2023/10/23 07:32:18;;;;;;;15.77;5.18;;;8.80;74.40;;;;;;5055787;28;20104;-76
2023/10/23 07:34:43;;;;;;;13.32;5.05;;;8.70;75.10;;;;;;5055577;28;20128;-76
2023/10/23 07:37:11;;;;;;;12.00;5.25;;;8.70;75.50;;;;;;5055595;28;20468;-75
2023/10/23 07:39:36;;;;;;;7.20;4.78;;;8.70;76.00;;;;;;5055619;28;20051;-78
2023/10/23 07:42:02;;;;;;;10.15;4.72;;;8.60;76.70;;;;;;5055831;28;20025;-77
2023/10/23 07:44:28;;;;;;;9.07;4.43;;;8.60;76.80;;;;;;5056198;28;20025;-83
2023/10/23 07:46:53;;;;;;;9.38;4.97;;;8.60;77.50;;;;;;5059367;28;20036;-72
2023/10/23 07:49:19;;;;;;;9.55;5.22;;;8.80;77.50;;;;;;5054315;28;20083;-76
2023/10/23 07:51:45;;;;;;;12.63;5.00;;;8.90;77.50;;;;;;5055054;28;20020;-76
2023/10/23 07:54:10;;;;;;;9.05;5.15;;;8.80;78.50;;;;;;5055193;28;20021;-76
2023/10/23 07:56:36;;;;;;;9.98;3.92;;;8.80;79.70;;;;;;5053776;28;20017;-73
2023/10/23 07:59:02;;;;;;;6.97;3.53;;;8.90;79.40;;;;;;5055375;28;20539;-76
2023/10/23 08:01:27;;;;;;;7.93;3.60;;;9.00;79.70;;;;;;5055372;28;20029;-75
2023/10/23 08:03:53;;;;;;;8.13;3.97;;;9.00;79.80;;;;;;5055785;28;20099;-75
2023/10/23 08:06:18;;;;;;;8.57;3.67;;;9.10;80.00;;;;;;5053988;28;20013;-76
2023/10/23 08:08:45;;;;;;;4.85;3.20;;;9.10;80.20;;;;;;5055011;28;20029;-77
2023/10/23 08:11:12;;;;;;;8.02;3.90;;;9.30;80.10;;;;;;5054811;28;20018;-73
2023/10/23 08:13:39;;;;;;;4.53;2.92;;;9.60;85.70;;;;;;5054909;28;20033;-76
2023/10/23 08:16:05;;;;;;;4.30;2.92;;;9.60;80.00;;;;;;5054846;28;20017;-75
2023/10/23 08:18:34;;;;;;;8.98;3.22;;;9.70;79.80;;;;;;5053631;28;20036;-74
2023/10/23 08:20:59;;;;;;;7.15;3.42;;;9.70;79.80;;;;;;5054697;28;20025;-73
2023/10/23 08:23:25;;;;;;;6.53;3.13;;;9.70;80.30;;;;;;5054600;28;20558;-73
2023/10/23 08:25:51;;;;;;;5.38;2.35;;;9.70;80.20;;;;;;5054653;28;20029;-72
2023/10/23 08:28:16;;;;;;;8.55;5.82;;;9.90;80.20;;;;;;5054644;28;20517;-74
2023/10/23 08:30:42;;;;;;;7.72;5.15;;;9.90;80.10;;;;;;5055000;28;20056;-73
2023/10/23 08:33:09;;;;;;;6.97;4.32;;;10.00;80.10;;;;;;5054314;28;20025;-73
2023/10/23 08:35:34;;;;;;;6.18;3.90;;;10.10;79.90;;;;;;5054339;28;20029;-75
2023/10/23 08:38:00;;;;;;;5.95;1.58;;;10.10;79.60;;;;;;5053129;28;20036;-75
2023/10/23 08:40:26;;;;;;;3.42;1.50;;;10.30;78.70;;;;;;5054220;28;20104;-73
2023/10/23 08:42:52;;;;;;;5.18;0.93;;;10.70;77.70;;;;;;5054286;28;20473;-75
2023/10/23 08:45:17;;;;;;;4.43;1.65;;;11.10;75.20;;;;;;5054215;28;20028;-75
2023/10/23 08:47:43;;;;;;;5.43;1.55;;;11.50;74.50;;;;;;5054393;28;20489;-75
2023/10/23 08:50:10;;;;;;;4.05;1.73;;;11.90;73.80;;;;;;5053095;28;20063;-76
2023/10/23 08:52:45;;;;;;;4.30;1.45;;;12.20;71.90;;;;;;5054517;28;20056;-77
2023/10/23 08:55:13;;;;;;;3.65;0.93;;;12.50;70.80;;;;;;5052563;28;20036;-76
2023/10/23 08:57:43;;;;;;;2.72;0.90;;;12.60;68.10;;;;;;5054053;28;20029;-76
2023/10/23 09:00:10;;;;;;;2.58;0.90;;;12.60;67.80;;;;;;5052806;28;20389;-75
2023/10/23 09:02:35;;;;;;;3.75;0.90;;;12.60;67.70;;;;;;5054306;28;20072;-76
2023/10/23 09:05:03;;;;;;;2.35;1.15;;;12.60;67.70;;;;;;5057753;28;20033;-74
2023/10/23 09:07:28;;;;;;;4.20;2.53;;;12.60;67.90;;;;;;5056928;28;20090;-76
2023/10/23 09:10:00;;;;;;;5.97;2.95;;;12.70;68.80;;;;;;5053583;28;20107;-76
2023/10/23 09:12:34;;;;;;;5.40;3.00;;;12.50;69.00;;;;;;5052627;28;20036;-75
2023/10/23 09:15:17;;;;;;;6.97;2.92;;;12.30;70.20;;;;;;5053636;28;20059;-76
2023/10/23 09:17:43;;;;;;;6.50;3.30;;;12.00;71.60;;;;;;5052475;28;20033;-75
2023/10/23 09:20:24;;;;;;;4.57;2.65;;;11.80;72.20;;;;;;5053010;28;20017;-75
2023/10/23 09:22:53;;;;;;;4.35;2.90;;;11.80;72.70;;;;;;5050820;28;20029;-75
2023/10/23 09:25:21;;;;;;;4.55;2.60;;;11.80;73.10;;;;;;5049733;28;20032;-75
2023/10/23 09:27:47;;;;;;;5.75;3.05;;;11.80;73.10;;;;;;5053000;28;20469;-74
2023/10/23 09:30:15;;;;;;;4.88;3.05;;;11.90;73.20;;;;;;5051833;28;20037;-75
2023/10/23 09:32:41;;;;;;;5.55;3.75;;;12.00;73.00;;;;;;5052175;28;20028;-75
2023/10/23 09:35:10;;;;;;;6.25;3.53;;;12.10;72.90;;;;;;5052878;28;20053;-77
2023/10/23 09:37:39;;;;;;;8.15;3.40;;;12.30;71.60;;;;;;5053530;28;20021;-75
2023/10/23 09:40:09;;;;;;;7.07;3.78;;;12.40;71.30;;;;;;5053281;28;20102;-76
2023/10/23 09:42:35;;;;;;;5.07;2.88;;;12.60;71.10;;;;;;5053053;28;20546;-75
2023/10/23 09:45:04;;;;;;;5.57;3.30;;;12.60;70.40;;;;;;5053984;28;20041;-77
2023/10/23 09:47:30;;;;;;;6.28;3.35;;;12.70;70.10;;;;;;5052956;28;20021;-77
2023/10/23 09:49:56;;;;;;;6.50;3.83;;;12.80;69.60;;;;;;5051340;28;20021;-75
2023/10/23 09:52:24;;;;;;;14.90;7.45;;;12.90;69.70;;;;;;5052705;28;20016;-76
2023/10/23 09:54:54;;;;;;;8.55;3.97;;;13.00;69.60;;;;;;5051443;28;20025;-74
2023/10/23 09:57:23;;;;;;;7.78;3.35;;;13.00;69.50;;;;;;5050921;28;20021;-75
2023/10/23 09:59:59;;;;;;;6.30;3.30;;;12.90;69.50;;;;;;5052140;28;20066;-73
2023/10/23 10:02:27;;;;;;;;;;;12.90;69.60;;;;;;5052079;28;20037;-73
2023/10/23 10:05:13;;;;;;;6.80;3.55;;;12.70;70.10;;;;;;5068031;28;19909;-76
2023/10/23 10:07:38;;;;;;;6.00;3.30;;;12.60;71.30;;;;;;5053314;28;20025;-72
2023/10/23 10:10:05;;;;;;;4.50;2.85;;;12.60;71.40;;;;;;5053207;28;20378;-74
2023/10/23 10:12:34;;;;;;;4.72;3.10;;;12.60;71.50;;;;;;5052846;28;20032;-73
2023/10/23 10:15:01;;;;;;;5.70;3.72;;;12.40;72.40;;;;;;5051730;28;20021;-74
2023/10/23 10:17:28;;;;;;;6.63;3.80;;;12.50;72.70;;;;;;5052497;28;20025;-72
2023/10/23 10:19:55;;;;;;;8.43;3.97;;;12.40;72.60;;;;;;5051955;28;20037;-75
2023/10/23 10:22:39;;;;;;;8.00;3.72;;;12.40;73.00;;;;;;5052403;28;20025;-75
2023/10/23 10:25:06;;;;;;;7.07;3.50;;;12.40;72.90;;;;;;5052498;28;20029;-73
2023/10/23 10:27:32;;;;;;;5.90;3.42;;;12.20;73.40;;;;;;5052613;28;20542;-73
2023/10/23 10:30:05;;;;;;;7.72;3.38;;;12.30;73.50;;;;;;5052209;28;20500;-73
2023/10/23 10:32:33;;;;;;;9.00;3.40;;;12.20;73.20;;;;;;5051281;28;20035;-74
2023/10/23 10:35:03;;;;;;;6.18;3.42;;;12.20;73.30;;;;;;5052328;28;20048;-75
2023/10/23 10:37:32;;;;;;;4.38;3.47;;;12.10;73.70;;;;;;5051684;28;20029;-74
2023/10/23 10:39:58;;;;;;;4.30;2.88;;;12.00;74.10;;;;;;5052514;28;20485;-73
2023/10/23 10:42:30;;;;;;;5.43;3.10;;;12.10;74.20;;;;;;5052701;28;20025;-73
2023/10/23 10:45:16;;;;;;;8.02;3.55;;;12.20;74.60;;;;;;5051198;28;20035;-72
2023/10/23 10:47:48;;;;;;;5.85;3.53;;;12.20;74.50;;;;;;5050049;28;20101;-74
2023/10/23 10:50:31;;;;;;;9.45;3.80;;;12.10;75.70;;;;;;5051870;28;20352;-72
2023/10/23 10:53:03;;;;;;;6.63;4.13;;;12.10;74.50;;;;;;5052286;28;20013;-73
2023/10/23 10:55:29;;;;;;;9.10;4.03;;;12.00;74.90;;;;;;5050332;28;20078;-71
2023/10/23 10:57:57;;;;;;;4.68;3.10;;;11.90;75.90;;;;;;5050721;28;20032;-74
2023/10/23 11:00:25;;;;;;;4.80;3.22;;;11.80;77.20;;;;;;5051728;28;20024;-75
2023/10/23 11:02:51;;;;;;;7.40;4.03;;;11.80;76.60;;;;;;5050405;28;20031;-74
2023/10/23 11:05:16;;;;;;;8.13;5.20;;;11.80;76.90;;;;;;5051592;28;20104;-75
2023/10/23 11:07:47;;;;;;;6.72;4.13;;;11.80;78.00;;;;;;5051408;28;20100;-72
2023/10/23 11:10:13;;;;;;;7.93;4.47;;;11.80;78.00;;;;;;5051638;28;20100;-72
2023/10/23 11:12:40;;;;;;;9.00;4.63;;;11.90;78.40;;;;;;5048861;28;20474;-75
2023/10/23 11:15:06;;;;;;;7.90;4.38;;;11.90;78.60;;;;;;5051600;28;20021;-73
2023/10/23 11:17:32;;;;;;;8.27;5.05;;;12.00;78.00;;;;;;5051683;28;20028;-74
2023/10/23 11:19:58;;;;;;;8.20;4.95;;;12.00;77.40;;;;;;5050474;28;20021;-72
2023/10/23 11:22:25;;;;;;;8.90;5.00;;;12.10;76.80;;;;;;5051620;28;20163;-72
2023/10/23 11:24:51;;;;;;;8.30;5.13;;;12.10;76.70;;;;;;5051340;28;20485;-73
2023/10/23 11:27:17;;;;;;;7.18;4.80;;;12.10;76.90;;;;;;5048832;28;20075;-71
2023/10/23 11:29:44;;;;;;;8.73;5.25;;;12.10;76.20;;;;;;5051584;28;20126;-73
2023/10/23 11:32:14;;;;;;;9.75;5.28;;;12.10;76.10;;;;;;5051617;28;20042;-72
2023/10/23 11:34:40;;;;;;;6.90;4.22;;;12.00;75.80;;;;;;5054537;28;20053;-71
2023/10/23 11:37:10;;;;;;;8.48;5.68;;;12.10;76.10;;;;;;5054780;28;20012;-72
2023/10/23 11:39:37;;;;;;;10.63;6.32;;;12.00;75.70;;;;;;5054925;28;20021;-71
2023/10/23 11:42:04;;;;;;;8.93;5.45;;;12.00;75.50;;;;;;5054988;28;20032;-71
2023/10/23 11:44:32;;;;;;;10.48;5.20;;;12.00;76.00;;;;;;5055232;28;20393;-72
2023/10/23 11:46:59;;;;;;;9.85;5.43;;;12.00;76.70;;;;;;5056618;28;20442;-81
2023/10/23 11:49:24;;;;;;;6.90;4.10;;;12.10;77.20;;;;;;5053892;28;20064;-76
2023/10/23 11:51:51;;;;;;;7.97;4.13;;;12.10;76.60;;;;;;5055271;28;20322;-75
2023/10/23 11:54:18;;;;;;;7.03;3.42;;;12.20;76.30;;;;;;5055424;28;20032;-75
2023/10/23 11:56:44;;;;;;;16.90;11.02;;;12.20;76.10;;;;;;5053924;28;20025;-73
2023/10/23 11:59:20;;;;;;;20.17;12.90;;;12.20;76.10;;;;;;5053456;28;20027;-72
2023/10/23 12:01:46;;;;;;;22.85;15.27;;;12.20;76.20;;;;;;5055242;28;20071;-76
2023/10/23 12:04:13;;;;;;;13.13;8.30;;;12.30;76.40;;;;;;5055161;28;20033;-72
2023/10/23 12:06:39;;;;;;;7.63;4.40;;;12.30;77.60;;;;;;5055209;28;20025;-72
2023/10/23 12:09:06;;;;;;;9.20;4.22;;;12.10;77.90;;;;;;5055060;28;20021;-71
2023/10/23 12:11:35;;;;;;;6.93;4.35;;;12.10;79.00;;;;;;5053590;28;20473;-72
2023/10/23 12:14:02;;;;;;;8.48;4.20;;;11.90;79.10;;;;;;5054586;28;20064;-73
2023/10/23 12:16:30;;;;;;;4.32;3.20;;;11.90;79.00;;;;;;5054865;28;20025;-72
2023/10/23 12:18:56;;;;;;;6.07;4.10;;;12.00;78.90;;;;;;5054515;28;20396;-74
2023/10/23 12:21:22;;;;;;;7.45;4.38;;;12.10;79.20;;;;;;5054580;28;20017;-74
2023/10/23 12:23:47;;;;;;;9.95;4.85;;;12.10;79.10;;;;;;5054377;28;20036;-75
2023/10/23 12:26:13;;;;;;;8.23;4.30;;;12.20;79.20;;;;;;5054488;28;20075;-74
2023/10/23 12:28:39;;;;;;;10.85;4.72;;;12.40;80.10;;;;;;5054720;28;20029;-73
2023/10/23 12:31:05;;;;;;;6.65;3.92;;;12.40;78.20;;;;;;5053222;28;20400;-73
2023/10/23 12:33:33;;;;;;;8.18;4.30;;;12.50;78.50;;;;;;5054435;28;20167;-73
2023/10/23 12:36:03;;;;;;;9.35;5.10;;;12.50;78.10;;;;;;5054441;28;20087;-74
2023/10/23 12:38:38;;;;;;;8.80;5.28;;;12.50;77.30;;;;;;5054478;28;20025;-73
2023/10/23 12:41:04;;;;;;;7.13;5.03;;;12.40;78.30;;;;;;5054523;28;20033;-74
2023/10/23 12:43:31;;;;;;;6.18;4.63;;;12.50;78.10;;;;;;5053277;28;20037;-73
2023/10/23 12:45:56;;;;;;;7.95;5.03;;;12.50;77.90;;;;;;5053975;28;20035;-73
2023/10/23 12:48:22;;;;;;;10.10;5.40;;;12.60;77.80;;;;;;5054371;28;20104;-76
2023/10/23 12:50:47;;;;;;;10.27;5.40;;;12.70;78.40;;;;;;5052920;28;20025;-73